sensor_id;sensor_type;location;lat;lon;timestamp;pressure;altitude;pressure_sealevel;temperature;humidity
50250;BME280;36133;42.522;27.456;2023-04-01T00:00:48;100558.88;;;11.42;59.03
50250;BME280;36133;42.522;27.456;2023-04-01T00:03:16;100620.59;;;12.84;56.54
50250;BME280;36133;42.522;27.456;2023-04-01T00:05:45;100642.94;;;12.38;57.61
50250;BME280;36133;42.522;27.456;2023-04-01T00:08:11;100559.75;;;12.12;57.71
50250;BME280;36133;42.522;27.456;2023-04-01T00:10:37;100588.16;;;11.67;59.74
50250;BME280;36133;42.522;27.456;2023-04-01T00:13:03;100648.59;;;12.09;59.86
50250;BME280;36133;42.522;27.456;2023-04-01T00:15:28;100626.16;;;11.80;59.99
50250;BME280;36133;42.522;27.456;2023-04-01T00:17:54;100358.75;;;10.17;60.65
50250;BME280;36133;42.522;27.456;2023-04-01T00:20:20;100553.13;;;11.80;59.43
50250;BME280;36133;42.522;27.456;2023-04-01T00:22:46;100637.19;;;13.22;57.83
50250;BME280;36133;42.522;27.456;2023-04-01T00:25:12;100443.47;;;12.78;55.61
50250;BME280;36133;42.522;27.456;2023-04-01T00:27:38;100634.03;;;14.11;55.29
50250;BME280;36133;42.522;27.456;2023-04-01T00:30:04;100261.59;;;12.42;54.31
50250;BME280;36133;42.522;27.456;2023-04-01T00:32:29;100577.25;;;14.61;53.15
50250;BME280;36133;42.522;27.456;2023-04-01T00:34:56;100618.00;;;13.76;56.62
50250;BME280;36133;42.522;27.456;2023-04-01T00:37:25;100176.25;;;10.03;57.61
50250;BME280;36133;42.522;27.456;2023-04-01T00:39:51;100483.22;;;12.38;57.11
50250;BME280;36133;42.522;27.456;2023-04-01T00:42:17;100029.31;;;10.34;55.97
50250;BME280;36133;42.522;27.456;2023-04-01T00:44:46;100628.44;;;13.60;56.50
50250;BME280;36133;42.522;27.456;2023-04-01T00:47:13;100574.00;;;13.61;55.06
50250;BME280;36133;42.522;27.456;2023-04-01T00:49:42;100116.22;;;10.22;56.05
50250;BME280;36133;42.522;27.456;2023-04-01T00:52:13;100450.47;;;12.33;56.24
50250;BME280;36133;42.522;27.456;2023-04-01T00:54:41;100090.41;;;9.51;57.67
50250;BME280;36133;42.522;27.456;2023-04-01T00:57:12;100122.56;;;9.80;57.95
50250;BME280;36133;42.522;27.456;2023-04-01T00:59:43;100535.38;;;12.12;59.31
50250;BME280;36133;42.522;27.456;2023-04-01T01:02:12;100608.63;;;13.59;56.35
50250;BME280;36133;42.522;27.456;2023-04-01T01:04:38;100517.09;;;13.22;55.80
50250;BME280;36133;42.522;27.456;2023-04-01T01:10:08;100622.88;;;12.74;58.58
50250;BME280;36133;42.522;27.456;2023-04-01T01:15:33;100550.00;;;13.32;55.64
50250;BME280;36133;42.522;27.456;2023-04-01T01:24:12;100586.09;;;13.72;54.66
50250;BME280;36133;42.522;27.456;2023-04-01T01:34:55;100487.84;;;14.53;51.35
50250;BME280;36133;42.522;27.456;2023-04-01T01:37:25;100467.00;;;14.02;52.59
50250;BME280;36133;42.522;27.456;2023-04-01T01:39:57;100393.50;;;13.59;52.68
50250;BME280;36133;42.522;27.456;2023-04-01T01:42:25;100510.72;;;14.25;52.46
50250;BME280;36133;42.522;27.456;2023-04-01T01:44:52;100523.06;;;13.57;55.12
50250;BME280;36133;42.522;27.456;2023-04-01T01:47:19;100581.22;;;14.07;55.40
50250;BME280;36133;42.522;27.456;2023-04-01T01:49:47;100458.31;;;13.80;53.91
50250;BME280;36133;42.522;27.456;2023-04-01T01:52:13;100567.38;;;14.15;55.06
50250;BME280;36133;42.522;27.456;2023-04-01T01:54:56;100367.44;;;13.51;53.39
50250;BME280;36133;42.522;27.456;2023-04-01T01:57:29;100576.47;;;13.63;55.87
50250;BME280;36133;42.522;27.456;2023-04-01T01:59:59;100471.34;;;13.52;54.24
50250;BME280;36133;42.522;27.456;2023-04-01T02:02:27;100507.22;;;13.54;54.73
50250;BME280;36133;42.522;27.456;2023-04-01T02:04:56;100387.81;;;12.36;56.80
50250;BME280;36133;42.522;27.456;2023-04-01T02:07:30;100419.91;;;12.99;56.25
50250;BME280;36133;42.522;27.456;2023-04-01T02:09:57;100559.56;;;13.14;58.92
50250;BME280;36133;42.522;27.456;2023-04-01T02:12:24;100532.81;;;12.72;59.25
50250;BME280;36133;42.522;27.456;2023-04-01T02:14:57;100369.16;;;11.32;60.05
50250;BME280;36133;42.522;27.456;2023-04-01T02:17:27;100453.56;;;11.69;60.87
50250;BME280;36133;42.522;27.456;2023-04-01T02:20:02;100547.72;;;12.35;60.71
50250;BME280;36133;42.522;27.456;2023-04-01T02:22:35;100547.38;;;12.51;60.17
50250;BME280;36133;42.522;27.456;2023-04-01T02:25:13;100527.25;;;12.12;60.91
50250;BME280;36133;42.522;27.456;2023-04-01T02:27:42;100400.22;;;11.50;60.36
50250;BME280;36133;42.522;27.456;2023-04-01T02:30:09;100558.13;;;11.55;63.56
50250;BME280;36133;42.522;27.456;2023-04-01T02:32:36;100464.94;;;11.23;62.87
50250;BME280;36133;42.522;27.456;2023-04-01T02:35:08;100542.59;;;11.64;63.03
50250;BME280;36133;42.522;27.456;2023-04-01T02:37:36;100481.97;;;11.17;63.60
50250;BME280;36133;42.522;27.456;2023-04-01T02:40:06;100361.94;;;10.70;63.17
50250;BME280;36133;42.522;27.456;2023-04-01T02:42:33;100380.59;;;11.00;62.95
50250;BME280;36133;42.522;27.456;2023-04-01T02:44:59;100446.66;;;11.60;62.10
50250;BME280;36133;42.522;27.456;2023-04-01T02:47:24;100542.78;;;12.45;61.42
50250;BME280;36133;42.522;27.456;2023-04-01T02:49:50;100449.91;;;11.83;61.45
50250;BME280;36133;42.522;27.456;2023-04-01T02:52:16;100530.75;;;12.67;60.73
50250;BME280;36133;42.522;27.456;2023-04-01T02:54:41;100461.03;;;12.08;61.23
50250;BME280;36133;42.522;27.456;2023-04-01T02:57:07;100551.41;;;12.95;60.53
50250;BME280;36133;42.522;27.456;2023-04-01T02:59:32;100315.41;;;11.03;61.34
50250;BME280;36133;42.522;27.456;2023-04-01T03:01:59;100412.88;;;11.42;62.18
50250;BME280;36133;42.522;27.456;2023-04-01T03:04:25;100431.69;;;12.05;61.05
50250;BME280;36133;42.522;27.456;2023-04-01T03:06:50;100243.59;;;10.80;60.93
50250;BME280;36133;42.522;27.456;2023-04-01T03:09:16;99976.47;;;9.29;60.53
50250;BME280;36133;42.522;27.456;2023-04-01T03:11:42;100194.00;;;10.47;60.98
50250;BME280;36133;42.522;27.456;2023-04-01T03:14:07;100175.34;;;9.68;63.35
50250;BME280;36133;42.522;27.456;2023-04-01T03:16:33;99996.31;;;9.56;61.10
50250;BME280;36133;42.522;27.456;2023-04-01T03:18:58;100207.59;;;10.67;61.59
50250;BME280;36133;42.522;27.456;2023-04-01T03:21:27;100450.75;;;11.84;61.93
50250;BME280;36133;42.522;27.456;2023-04-01T03:23:52;100423.38;;;12.20;60.86
50250;BME280;36133;42.522;27.456;2023-04-01T03:26:18;99993.41;;;10.40;58.71
50250;BME280;36133;42.522;27.456;2023-04-01T03:28:44;100412.38;;;13.27;57.48
50250;BME280;36133;42.522;27.456;2023-04-01T03:31:10;100058.94;;;11.01;56.92
50250;BME280;36133;42.522;27.456;2023-04-01T03:33:36;100428.84;;;12.59;59.17
50250;BME280;36133;42.522;27.456;2023-04-01T03:36:02;100324.50;;;11.02;62.28
50250;BME280;36133;42.522;27.456;2023-04-01T03:38:32;100524.94;;;12.90;60.71
50250;BME280;36133;42.522;27.456;2023-04-01T03:40:58;100076.25;;;10.39;59.83
50250;BME280;36133;42.522;27.456;2023-04-01T03:43:24;100237.38;;;11.41;58.98
50250;BME280;36133;42.522;27.456;2023-04-01T03:45:50;100048.88;;;10.42;58.22
50250;BME280;36133;42.522;27.456;2023-04-01T03:48:18;100254.44;;;11.48;59.18
50250;BME280;36133;42.522;27.456;2023-04-01T03:50:44;99961.19;;;9.71;59.01
50250;BME280;36133;42.522;27.456;2023-04-01T03:53:10;100124.25;;;11.38;57.90
50250;BME280;36133;42.522;27.456;2023-04-01T03:55:36;100247.47;;;12.07;57.63
50250;BME280;36133;42.522;27.456;2023-04-01T03:58:03;100284.47;;;12.66;57.08
50250;BME280;36133;42.522;27.456;2023-04-01T04:00:30;100312.63;;;12.51;57.73
50250;BME280;36133;42.522;27.456;2023-04-01T04:02:56;100116.56;;;11.61;56.99
50250;BME280;36133;42.522;27.456;2023-04-01T04:05:25;99909.06;;;10.11;57.33
50250;BME280;36133;42.522;27.456;2023-04-01T04:07:52;100505.16;;;13.42;58.65
50250;BME280;36133;42.522;27.456;2023-04-01T04:10:18;100332.63;;;12.57;58.03
50250;BME280;36133;42.522;27.456;2023-04-01T04:12:43;100522.53;;;14.06;58.05
50250;BME280;36133;42.522;27.456;2023-04-01T04:15:10;100172.31;;;12.09;57.39
50250;BME280;36133;42.522;27.456;2023-04-01T04:17:35;100471.66;;;14.33;57.06
50250;BME280;36133;42.522;27.456;2023-04-01T04:20:01;100244.09;;;13.15;56.89
50250;BME280;36133;42.522;27.456;2023-04-01T04:22:27;100409.66;;;14.23;56.95
50250;BME280;36133;42.522;27.456;2023-04-01T04:24:53;100507.91;;;14.83;56.96
50250;BME280;36133;42.522;27.456;2023-04-01T04:27:19;100405.16;;;13.66;57.95
50250;BME280;36133;42.522;27.456;2023-04-01T04:29:45;100518.09;;;14.18;58.61
50250;BME280;36133;42.522;27.456;2023-04-01T04:32:10;100503.78;;;15.06;56.66
50250;BME280;36133;42.522;27.456;2023-04-01T04:34:36;100493.19;;;15.66;55.83
50250;BME280;36133;42.522;27.456;2023-04-01T04:37:01;100335.94;;;15.13;55.21
50250;BME280;36133;42.522;27.456;2023-04-01T04:39:27;100317.38;;;15.65;54.59
50250;BME280;36133;42.522;27.456;2023-04-01T04:41:53;100184.06;;;15.46;53.09
50250;BME280;36133;42.522;27.456;2023-04-01T04:44:18;100328.06;;;16.73;51.23
50250;BME280;36133;42.522;27.456;2023-04-01T04:46:44;100322.38;;;16.21;53.09
50250;BME280;36133;42.522;27.456;2023-04-01T04:49:10;100298.81;;;15.73;51.64
50250;BME280;36133;42.522;27.456;2023-04-01T04:51:36;100412.53;;;16.31;51.36
50250;BME280;36133;42.522;27.456;2023-04-01T04:54:02;100347.34;;;16.06;51.66
50250;BME280;36133;42.522;27.456;2023-04-01T04:56:28;100207.97;;;16.09;50.08
50250;BME280;36133;42.522;27.456;2023-04-01T04:58:54;100487.41;;;17.36;50.71
50250;BME280;36133;42.522;27.456;2023-04-01T05:01:20;100213.19;;;16.23;49.01
50250;BME280;36133;42.522;27.456;2023-04-01T05:03:46;100493.69;;;18.23;48.63
50250;BME280;36133;42.522;27.456;2023-04-01T05:06:13;100484.91;;;16.99;50.96
50250;BME280;36133;42.522;27.456;2023-04-01T05:08:40;100258.78;;;16.16;50.40
50250;BME280;36133;42.522;27.456;2023-04-01T05:11:17;100386.13;;;16.74;50.12
50250;BME280;36133;42.522;27.456;2023-04-01T05:13:43;100421.34;;;17.45;49.43
50250;BME280;36133;42.522;27.456;2023-04-01T05:16:12;100446.31;;;16.84;51.13
50250;BME280;36133;42.522;27.456;2023-04-01T05:18:41;100270.63;;;18.17;47.30
50250;BME280;36133;42.522;27.456;2023-04-01T05:21:08;99986.34;;;17.46;44.80
50250;BME280;36133;42.522;27.456;2023-04-01T05:23:34;100320.97;;;20.25;42.80
50250;BME280;36133;42.522;27.456;2023-04-01T05:26:04;100248.69;;;20.36;41.79
50250;BME280;36133;42.522;27.456;2023-04-01T05:28:30;100454.06;;;22.64;39.87
50250;BME280;36133;42.522;27.456;2023-04-01T05:30:58;100468.59;;;20.65;42.58
50250;BME280;36133;42.522;27.456;2023-04-01T05:33:25;100318.19;;;20.89;40.61
50250;BME280;36133;42.522;27.456;2023-04-01T05:35:50;100232.97;;;21.16;39.92
50250;BME280;36133;42.522;27.456;2023-04-01T05:38:16;100450.00;;;21.36;41.37
50250;BME280;36133;42.522;27.456;2023-04-01T05:40:42;100172.44;;;21.58;39.30
50250;BME280;36133;42.522;27.456;2023-04-01T05:43:11;100368.63;;;24.54;36.76
50250;BME280;36133;42.522;27.456;2023-04-01T05:45:36;100430.22;;;24.44;36.20
50250;BME280;36133;42.522;27.456;2023-04-01T05:48:03;100204.66;;;24.31;34.67
50250;BME280;36133;42.522;27.456;2023-04-01T05:50:31;100417.66;;;24.18;36.55
50250;BME280;36133;42.522;27.456;2023-04-01T05:52:57;100387.41;;;22.06;40.77
50250;BME280;36133;42.522;27.456;2023-04-01T05:55:25;100178.47;;;21.75;39.25
50250;BME280;36133;42.522;27.456;2023-04-01T05:57:51;100196.91;;;21.70;38.93
50250;BME280;36133;42.522;27.456;2023-04-01T06:00:17;100385.22;;;22.13;41.11
50250;BME280;36133;42.522;27.456;2023-04-01T06:02:44;100425.22;;;23.02;40.25
50250;BME280;36133;42.522;27.456;2023-04-01T06:05:24;100419.13;;;22.59;41.33
50250;BME280;36133;42.522;27.456;2023-04-01T06:07:58;99985.16;;;22.36;37.27
50250;BME280;36133;42.522;27.456;2023-04-01T06:16:07;100424.41;;;21.30;42.83
50250;BME280;36133;42.522;27.456;2023-04-01T06:18:45;100424.00;;;21.54;42.37
50250;BME280;36133;42.522;27.456;2023-04-01T06:21:32;100418.41;;;21.33;42.94
50250;BME280;36133;42.522;27.456;2023-04-01T06:42:14;100205.22;;;20.12;43.09
50250;BME280;36133;42.522;27.456;2023-04-01T06:45:06;100425.72;;;22.43;41.57
50250;BME280;36133;42.522;27.456;2023-04-01T06:47:49;100399.81;;;21.46;42.37
50250;BME280;36133;42.522;27.456;2023-04-01T06:55:48;100148.81;;;22.08;39.23
50250;BME280;36133;42.522;27.456;2023-04-01T06:58:24;100437.03;;;22.87;40.55
50250;BME280;36133;42.522;27.456;2023-04-01T07:00:58;99938.03;;;20.20;39.54
50250;BME280;36133;42.522;27.456;2023-04-01T07:03:40;100302.81;;;21.35;42.20
50250;BME280;36133;42.522;27.456;2023-04-01T07:06:20;100026.50;;;20.83;39.76
50250;BME280;36133;42.522;27.456;2023-04-01T07:08:50;100236.19;;;22.01;40.10
50250;BME280;36133;42.522;27.456;2023-04-01T07:11:33;100392.69;;;22.73;40.82
50250;BME280;36133;42.522;27.456;2023-04-01T07:17:22;100260.78;;;20.77;43.81
50250;BME280;36133;42.522;27.456;2023-04-01T07:22:58;100199.81;;;20.60;43.31
50250;BME280;36133;42.522;27.456;2023-04-01T07:25:55;100415.47;;;22.13;43.09
50250;BME280;36133;42.522;27.456;2023-04-01T07:28:29;100219.47;;;22.17;41.40
50250;BME280;36133;42.522;27.456;2023-04-01T07:31:11;100161.22;;;23.84;37.45
50250;BME280;36133;42.522;27.456;2023-04-01T07:46:03;100344.75;;;29.92;30.44
50250;BME280;36133;42.522;27.456;2023-04-01T07:54:55;99908.09;;;25.23;32.26
50250;BME280;36133;42.522;27.456;2023-04-01T07:57:50;100336.25;;;29.31;30.99
50250;BME280;36133;42.522;27.456;2023-04-01T08:00:36;99924.50;;;25.33;32.69
50250;BME280;36133;42.522;27.456;2023-04-01T08:06:36;99853.25;;;24.51;33.92
50250;BME280;36133;42.522;27.456;2023-04-01T08:09:55;100344.16;;;25.29;37.68
50250;BME280;36133;42.522;27.456;2023-04-01T08:20:58;99843.50;;;21.24;39.69
50250;BME280;36133;42.522;27.456;2023-04-01T08:24:06;100322.19;;;24.27;40.33
50250;BME280;36133;42.522;27.456;2023-04-01T08:26:48;100025.94;;;23.80;37.66
50250;BME280;36133;42.522;27.456;2023-04-01T08:29:21;99728.28;;;19.46;41.90
50250;BME280;36133;42.522;27.456;2023-04-01T08:32:03;99850.13;;;20.47;41.59
50250;BME280;36133;42.522;27.456;2023-04-01T08:34:47;100110.09;;;22.79;40.54
50250;BME280;36133;42.522;27.456;2023-04-01T08:37:42;99803.53;;;20.57;40.92
50250;BME280;36133;42.522;27.456;2023-04-01T08:56:58;99819.94;;;20.22;41.76
50250;BME280;36133;42.522;27.456;2023-04-01T09:05:56;100076.84;;;21.45;43.17
50250;BME280;36133;42.522;27.456;2023-04-01T09:28:27;100229.31;;;22.39;43.38
50250;BME280;36133;42.522;27.456;2023-04-01T09:37:19;100137.59;;;25.78;36.30
50250;BME280;36133;42.522;27.456;2023-04-01T09:40:14;99894.84;;;25.06;34.86
50250;BME280;36133;42.522;27.456;2023-04-01T09:43:00;100220.50;;;26.62;35.67
50250;BME280;36133;42.522;27.456;2023-04-01T09:45:41;100127.81;;;25.85;35.74
50250;BME280;36133;42.522;27.456;2023-04-01T09:54:01;100163.19;;;23.39;41.42
50250;BME280;36133;42.522;27.456;2023-04-01T10:06:11;100179.91;;;27.12;34.66
50250;BME280;36133;42.522;27.456;2023-04-01T10:35:28;100128.97;;;25.47;37.72
50250;BME280;36133;42.522;27.456;2023-04-01T10:58:10;99625.06;;;22.97;37.39
50250;BME280;36133;42.522;27.456;2023-04-01T11:09:25;99948.59;;;23.95;38.55
50250;BME280;36133;42.522;27.456;2023-04-01T11:31:35;100032.13;;;24.44;39.34
50250;BME280;36133;42.522;27.456;2023-04-01T11:42:46;100008.88;;;24.02;38.77
50250;BME280;36133;42.522;27.456;2023-04-01T12:14:02;99798.09;;;22.46;39.95
50250;BME280;36133;42.522;27.456;2023-04-01T12:19:51;99450.91;;;20.02;40.15
50250;BME280;36133;42.522;27.456;2023-04-01T12:22:34;99893.44;;;23.95;38.82
50250;BME280;36133;42.522;27.456;2023-04-01T12:30:55;99995.22;;;24.16;39.87
50250;BME280;36133;42.522;27.456;2023-04-01T12:39:25;99990.44;;;23.74;40.26
50250;BME280;36133;42.522;27.456;2023-04-01T12:42:07;99744.66;;;22.81;39.41
50250;BME280;36133;42.522;27.456;2023-04-01T12:56:35;99503.34;;;20.94;39.87
50250;BME280;36133;42.522;27.456;2023-04-01T13:04:34;99498.63;;;23.06;36.98
50250;BME280;36133;42.522;27.456;2023-04-01T13:10:08;99614.84;;;23.92;35.92
50250;BME280;36133;42.522;27.456;2023-04-01T13:21:05;99505.16;;;20.69;40.76
50250;BME280;36133;42.522;27.456;2023-04-01T13:23:45;99489.16;;;20.82;40.28
50250;BME280;36133;42.522;27.456;2023-04-01T13:29:04;99923.72;;;24.19;39.84
50250;BME280;36133;42.522;27.456;2023-04-01T13:34:44;99675.44;;;21.82;41.24
50250;BME280;36133;42.522;27.456;2023-04-01T13:37:35;99819.66;;;21.84;42.21
50250;BME280;36133;42.522;27.456;2023-04-01T13:42:35;99758.81;;;22.06;41.57
50250;BME280;36133;42.522;27.456;2023-04-01T13:45:14;99564.63;;;20.79;41.31
50250;BME280;36133;42.522;27.456;2023-04-01T14:01:42;99636.84;;;21.97;40.62
50250;BME280;36133;42.522;27.456;2023-04-01T14:04:34;99782.44;;;23.28;40.51
50250;BME280;36133;42.522;27.456;2023-04-01T14:10:10;99899.00;;;23.72;40.79
50250;BME280;36133;42.522;27.456;2023-04-01T14:13:34;99674.81;;;22.77;39.97
50250;BME280;36133;42.522;27.456;2023-04-01T14:16:29;99850.03;;;24.25;39.03
50250;BME280;36133;42.522;27.456;2023-04-01T14:31:18;99851.63;;;25.15;36.85
50250;BME280;36133;42.522;27.456;2023-04-01T14:40:19;99836.72;;;23.23;40.26
50250;BME280;36133;42.522;27.456;2023-04-01T14:45:50;99316.53;;;19.78;40.96
50250;BME280;36133;42.522;27.456;2023-04-01T14:48:53;99779.59;;;23.09;40.31
50250;BME280;36133;42.522;27.456;2023-04-01T14:51:29;99622.59;;;22.72;39.06
50250;BME280;36133;42.522;27.456;2023-04-01T14:54:55;99784.59;;;22.78;40.44
50250;BME280;36133;42.522;27.456;2023-04-01T14:57:26;99335.06;;;21.38;37.71
50250;BME280;36133;42.522;27.456;2023-04-01T15:00:13;99646.47;;;23.62;36.83
50250;BME280;36133;42.522;27.456;2023-04-01T15:06:38;99770.47;;;26.38;32.93
50250;BME280;36133;42.522;27.456;2023-04-01T15:12:26;99619.56;;;24.79;34.04
50250;BME280;36133;42.522;27.456;2023-04-01T15:20:28;99786.84;;;23.48;38.65
50250;BME280;36133;42.522;27.456;2023-04-01T15:28:32;99695.25;;;22.13;40.05
50250;BME280;36133;42.522;27.456;2023-04-01T15:31:32;99403.03;;;20.48;39.87
50250;BME280;36133;42.522;27.456;2023-04-01T15:42:53;99327.78;;;20.26;40.04
50250;BME280;36133;42.522;27.456;2023-04-01T15:47:59;99326.19;;;19.50;40.92
50250;BME280;36133;42.522;27.456;2023-04-01T16:02:32;99792.19;;;21.84;40.25
50250;BME280;36133;42.522;27.456;2023-04-01T16:05:16;99805.09;;;21.84;39.75
50250;BME280;36133;42.522;27.456;2023-04-01T16:09:13;99637.72;;;20.19;40.39
50250;BME280;36133;42.522;27.456;2023-04-01T16:11:22;99779.91;;;20.87;40.24
50250;BME280;36133;42.522;27.456;2023-04-01T16:22:41;99279.19;;;17.60;41.43
50250;BME280;36133;42.522;27.456;2023-04-01T16:30:58;99839.66;;;21.35;41.29
50250;BME280;36133;42.522;27.456;2023-04-01T16:33:48;99857.56;;;20.52;42.96
50250;BME280;36133;42.522;27.456;2023-04-01T16:36:27;99854.81;;;20.67;42.46
50250;BME280;36133;42.522;27.456;2023-04-01T16:44:46;99833.41;;;20.79;42.78
50250;BME280;36133;42.522;27.456;2023-04-01T16:47:18;99862.72;;;21.29;42.12
50250;BME280;36133;42.522;27.456;2023-04-01T16:50:21;99856.69;;;21.07;42.74
50250;BME280;36133;42.522;27.456;2023-04-01T16:55:49;99844.91;;;20.91;43.75
50250;BME280;36133;42.522;27.456;2023-04-01T16:58:41;99809.16;;;21.32;42.66
50250;BME280;36133;42.522;27.456;2023-04-01T17:01:20;99804.06;;;20.39;44.55
50250;BME280;36133;42.522;27.456;2023-04-01T17:04:00;99634.44;;;20.17;43.17
50250;BME280;36133;42.522;27.456;2023-04-01T17:06:44;99840.81;;;20.68;44.57
50250;BME280;36133;42.522;27.456;2023-04-01T17:12:07;99846.28;;;20.58;45.05
50250;BME280;36133;42.522;27.456;2023-04-01T17:14:47;99851.19;;;20.31;45.26
50250;BME280;36133;42.522;27.456;2023-04-01T17:17:27;99789.25;;;20.35;44.57
50250;BME280;36133;42.522;27.456;2023-04-01T17:22:55;99850.03;;;19.91;47.10
50250;BME280;36133;42.522;27.456;2023-04-01T17:25:45;99541.91;;;17.87;47.47
50250;BME280;36133;42.522;27.456;2023-04-01T17:28:37;99789.13;;;19.58;47.71
50250;BME280;36133;42.522;27.456;2023-04-01T17:33:48;99835.97;;;19.67;48.78
50250;BME280;36133;42.522;27.456;2023-04-01T17:44:50;99893.50;;;19.72;49.35
50250;BME280;36133;42.522;27.456;2023-04-01T17:47:58;99891.91;;;19.34;50.87
50250;BME280;36133;42.522;27.456;2023-04-01T17:58:59;99499.97;;;17.29;50.73
50250;BME280;36133;42.522;27.456;2023-04-01T18:01:36;99885.28;;;19.72;50.91
50250;BME280;36133;42.522;27.456;2023-04-01T18:04:23;99773.97;;;17.87;54.49
50250;BME280;36133;42.522;27.456;2023-04-01T18:22:39;99860.94;;;18.27;56.78
50250;BME280;36133;42.522;27.456;2023-04-01T18:28:11;99899.25;;;18.05;57.96
50250;BME280;36133;42.522;27.456;2023-04-01T18:30:39;99888.38;;;18.96;55.42
50250;BME280;36133;42.522;27.456;2023-04-01T18:33:23;99906.03;;;19.21;54.63
50250;BME280;36133;42.522;27.456;2023-04-01T18:44:19;99949.66;;;18.41;55.60
50250;BME280;36133;42.522;27.456;2023-04-01T18:47:03;99817.00;;;17.75;54.86
50250;BME280;36133;42.522;27.456;2023-04-01T18:49:45;99942.16;;;18.59;55.04
50250;BME280;36133;42.522;27.456;2023-04-01T18:57:47;99979.16;;;18.18;56.43
50250;BME280;36133;42.522;27.456;2023-04-01T19:00:20;99998.19;;;18.12;55.98
50250;BME280;36133;42.522;27.456;2023-04-01T19:03:02;99754.00;;;17.11;55.34
50250;BME280;36133;42.522;27.456;2023-04-01T19:05:46;100004.72;;;18.55;53.66
50250;BME280;36133;42.522;27.456;2023-04-01T19:08:22;99984.03;;;18.15;52.23
50250;BME280;36133;42.522;27.456;2023-04-01T19:22:49;100039.94;;;18.52;49.58
50250;BME280;36133;42.522;27.456;2023-04-01T19:25:26;100072.44;;;17.88;50.67
50250;BME280;36133;42.522;27.456;2023-04-01T19:31:40;100061.00;;;17.91;50.79
50250;BME280;36133;42.522;27.456;2023-04-01T19:42:56;100061.03;;;17.57;51.34
50250;BME280;36133;42.522;27.456;2023-04-01T19:45:52;100044.78;;;18.23;50.37
50250;BME280;36133;42.522;27.456;2023-04-01T19:49:01;100058.53;;;17.39;51.82
50250;BME280;36133;42.522;27.456;2023-04-01T19:54:38;100065.91;;;17.21;51.94
50250;BME280;36133;42.522;27.456;2023-04-01T19:57:22;100064.22;;;17.88;50.85
50250;BME280;36133;42.522;27.456;2023-04-01T20:07:52;100002.88;;;17.06;51.29
50250;BME280;36133;42.522;27.456;2023-04-01T20:10:21;100068.63;;;17.89;50.04
50250;BME280;36133;42.522;27.456;2023-04-01T20:13:06;99967.28;;;17.13;49.99
50250;BME280;36133;42.522;27.456;2023-04-01T20:15:46;99530.94;;;14.29;50.88
50250;BME280;36133;42.522;27.456;2023-04-01T20:18:25;100086.56;;;17.68;50.56
50250;BME280;36133;42.522;27.456;2023-04-01T20:24:00;99984.72;;;17.28;50.62
50250;BME280;36133;42.522;27.456;2023-04-01T20:26:36;99867.78;;;16.82;49.40
50250;BME280;36133;42.522;27.456;2023-04-01T20:32:36;100088.53;;;17.55;51.17
50250;BME280;36133;42.522;27.456;2023-04-01T20:40:47;100064.78;;;18.28;49.29
50250;BME280;36133;42.522;27.456;2023-04-01T20:46:19;100077.00;;;19.45;46.71
50250;BME280;36133;42.522;27.456;2023-04-01T20:51:51;100081.56;;;18.15;49.54
50250;BME280;36133;42.522;27.456;2023-04-01T20:54:38;100098.50;;;17.78;49.81
50250;BME280;36133;42.522;27.456;2023-04-01T20:57:14;100054.44;;;17.70;50.20
50250;BME280;36133;42.522;27.456;2023-04-01T21:00:19;100092.59;;;18.64;48.31
50250;BME280;36133;42.522;27.456;2023-04-01T21:02:59;100109.72;;;17.99;49.93
50250;BME280;36133;42.522;27.456;2023-04-01T21:08:14;100093.63;;;18.80;48.66
50250;BME280;36133;42.522;27.456;2023-04-01T21:21:33;100089.03;;;17.52;52.40
50250;BME280;36133;42.522;27.456;2023-04-01T21:26:46;100089.56;;;17.83;51.64
50250;BME280;36133;42.522;27.456;2023-04-01T21:29:31;100094.56;;;17.69;52.55
50250;BME280;36133;42.522;27.456;2023-04-01T21:45:55;99938.88;;;15.54;56.25
50250;BME280;36133;42.522;27.456;2023-04-01T21:48:43;100071.63;;;16.51;56.02
50250;BME280;36133;42.522;27.456;2023-04-01T21:57:24;100090.56;;;15.82;58.69
50250;BME280;36133;42.522;27.456;2023-04-01T22:05:04;100128.53;;;15.66;60.22
50250;BME280;36133;42.522;27.456;2023-04-01T22:10:27;100139.19;;;15.79;60.27
50250;BME280;36133;42.522;27.456;2023-04-01T22:18:52;100117.00;;;15.40;61.45
50250;BME280;36133;42.522;27.456;2023-04-01T22:21:41;99715.47;;;12.74;62.15
50250;BME280;36133;42.522;27.456;2023-04-01T22:29:34;99578.44;;;12.54;60.00
50250;BME280;36133;42.522;27.456;2023-04-01T22:32:23;100152.16;;;15.23;62.16
50250;BME280;36133;42.522;27.456;2023-04-01T22:34:57;100094.19;;;14.51;63.52
50250;BME280;36133;42.522;27.456;2023-04-01T22:43:09;99945.50;;;14.28;61.26
50250;BME280;36133;42.522;27.456;2023-04-01T22:46:09;100175.50;;;15.31;62.06
50250;BME280;36133;42.522;27.456;2023-04-01T22:48:49;100173.00;;;15.30;61.98
50250;BME280;36133;42.522;27.456;2023-04-01T22:51:23;99745.53;;;12.66;61.63
50250;BME280;36133;42.522;27.456;2023-04-01T22:56:48;99834.13;;;13.45;59.81
50250;BME280;36133;42.522;27.456;2023-04-01T22:59:26;100174.16;;;15.22;60.59
50250;BME280;36133;42.522;27.456;2023-04-01T23:01:59;100144.25;;;15.22;59.86
50250;BME280;36133;42.522;27.456;2023-04-01T23:04:37;99850.88;;;12.99;60.56
50250;BME280;36133;42.522;27.456;2023-04-01T23:08:01;99646.53;;;11.33;60.99
50250;BME280;36133;42.522;27.456;2023-04-01T23:10:05;100209.19;;;14.38;61.37
50250;BME280;36133;42.522;27.456;2023-04-01T23:12:38;100102.47;;;13.76;60.91